KANB/ANB METAR and TAF weather

Enter ICAO airport designator
Station Type Date Time Source
KANB METAR 2022/01/23 11:53 UTC NOAA

KANB 231153Z AUTO 21003KT 10SM CLR M06/M07 A3019 RMK AO2 SLP237 I1000 I6001 T10561072 11039 21067 55004


Station Type Date Time Source
KANB Decoded METAR 2022/01/23 11:53 UTC NOAA

ANNISTON METRO AIRPORT, AL, United States (KANB) 33-35N 085-51W 183M
Jan 23, 2022 - 06:53 AM EST / 2022.01.23 1153 UTC
Wind: from the SSW (210 degrees) at 3 MPH (3 KT):0
Visibility: 10 mile(s):0
Sky conditions: clear
Temperature: 21.9 F (-5.6 C)
Dew Point: 19.0 F (-7.2 C)
Relative Humidity: 88%
Pressure (altimeter): 30.19 in. Hg (1022 hPa)
Pressure tendency: 0.01 inches (0.4 hPa) lower than three hours ago
ob: KANB 231153Z AUTO 21003KT 10SM CLR M06/M07 A3019 RMK AO2 SLP237 I1000 I6001 T10561072 11039 21067 55004
cycle: 12

Station Type Date Time Source
KANB TAF 2022/01/23 12:24 UTC NOAA

TAF KANB 231122Z 2312/2412 00000KT P6SM SKC
FM231600 27009KT P6SM SKC
FM240000 VRB02KT P6SM SKC

Example: see airport list